DLH137 EDDS-EDDF
Flight info
| Callsign | DLH137 |
|---|---|
| Flight time | 0h 36m |
| Altitude | 22000 |
| Route | ETASA4B/25 ETASA T163 SPESA SPESA4B |
| Aircraft | A20N/M-SDE2E3FGIJ1LORWXYZ/HB1 |
Departure
| Time | 2026-05-07 15:31 |
|---|---|
| Airport | Stuttgart Airport (EDDS) |
Arrival
| Time | 2026-05-07 16:07 |
|---|---|
| Airport | Frankfurt Main Airport (EDDF) |
| Time | Latitude | Longitude | Altitude | Speed | Heading |
|---|---|---|---|---|---|
| 2026-05-07 14:58 | 48.68896 | 9.19429 | 1288 ft | 0 kts | 344° |
| 2026-05-07 15:13 | 48.68874 | 9.19438 | 1288 ft | 4 kts | 344° |
| 2026-05-07 15:13 | 48.68852 | 9.19448 | 1288 ft | 3 kts | 345° |
| 2026-05-07 15:14 | 48.68829 | 9.19448 | 1288 ft | 4 kts | 35° |
| 2026-05-07 15:14 | 48.68814 | 9.19420 | 1288 ft | 2 kts | 73° |
| 2026-05-07 15:14 | 48.68813 | 9.19416 | 1288 ft | 0 kts | 74° |
| 2026-05-07 15:16 | 48.68813 | 9.19417 | 1288 ft | 0 kts | 74° |
| 2026-05-07 15:17 | 48.68814 | 9.19421 | 1288 ft | 1 kts | 74° |
| 2026-05-07 15:17 | 48.68818 | 9.19443 | 1288 ft | 4 kts | 74° |
| 2026-05-07 15:17 | 48.68829 | 9.19505 | 1288 ft | 7 kts | 74° |
| 2026-05-07 15:17 | 48.68846 | 9.19594 | 1288 ft | 10 kts | 74° |
| 2026-05-07 15:18 | 48.68867 | 9.19706 | 1288 ft | 12 kts | 74° |
| 2026-05-07 15:18 | 48.68885 | 9.19835 | 1288 ft | 12 kts | 91° |
| 2026-05-07 15:18 | 48.68871 | 9.19871 | 1288 ft | 2 kts | 149° |
| 2026-05-07 15:18 | 48.68852 | 9.19882 | 1288 ft | 4 kts | 161° |
| 2026-05-07 15:19 | 48.68828 | 9.19899 | 1288 ft | 4 kts | 143° |
| 2026-05-07 15:19 | 48.68810 | 9.19923 | 1288 ft | 1 kts | 125° |
| 2026-05-07 15:19 | 48.68811 | 9.19942 | 1288 ft | 2 kts | 73° |
| 2026-05-07 15:19 | 48.68817 | 9.19962 | 1288 ft | 2 kts | 66° |
| 2026-05-07 15:20 | 48.68829 | 9.20003 | 1288 ft | 7 kts | 66° |
| 2026-05-07 15:20 | 48.68846 | 9.20077 | 1288 ft | 8 kts | 75° |
| 2026-05-07 15:20 | 48.68859 | 9.20156 | 1288 ft | 9 kts | 75° |
| 2026-05-07 15:20 | 48.68875 | 9.20249 | 1288 ft | 9 kts | 75° |
| 2026-05-07 15:21 | 48.68894 | 9.20344 | 1288 ft | 9 kts | 72° |
| 2026-05-07 15:21 | 48.68913 | 9.20441 | 1288 ft | 10 kts | 73° |
| 2026-05-07 15:21 | 48.68933 | 9.20542 | 1288 ft | 10 kts | 73° |
| 2026-05-07 15:21 | 48.68954 | 9.20647 | 1288 ft | 11 kts | 73° |
| 2026-05-07 15:22 | 48.68975 | 9.20755 | 1288 ft | 11 kts | 76° |
| 2026-05-07 15:22 | 48.68993 | 9.20866 | 1289 ft | 11 kts | 76° |
| 2026-05-07 15:22 | 48.69015 | 9.20978 | 1288 ft | 12 kts | 73° |
| 2026-05-07 15:22 | 48.69040 | 9.21103 | 1288 ft | 13 kts | 73° |
| 2026-05-07 15:23 | 48.69067 | 9.21240 | 1289 ft | 14 kts | 73° |
| 2026-05-07 15:23 | 48.69096 | 9.21388 | 1288 ft | 15 kts | 73° |
| 2026-05-07 15:23 | 48.69127 | 9.21547 | 1288 ft | 16 kts | 73° |
| 2026-05-07 15:23 | 48.69160 | 9.21719 | 1288 ft | 17 kts | 74° |
| 2026-05-07 15:24 | 48.69194 | 9.21900 | 1288 ft | 19 kts | 74° |
| 2026-05-07 15:24 | 48.69231 | 9.22092 | 1288 ft | 20 kts | 73° |
| 2026-05-07 15:24 | 48.69266 | 9.22296 | 1288 ft | 20 kts | 75° |
| 2026-05-07 15:24 | 48.69306 | 9.22508 | 1288 ft | 21 kts | 73° |
| 2026-05-07 15:25 | 48.69349 | 9.22724 | 1288 ft | 22 kts | 73° |
| 2026-05-07 15:25 | 48.69390 | 9.22944 | 1288 ft | 22 kts | 73° |
| 2026-05-07 15:25 | 48.69434 | 9.23168 | 1288 ft | 22 kts | 73° |
| 2026-05-07 15:25 | 48.69479 | 9.23394 | 1288 ft | 23 kts | 72° |
| 2026-05-07 15:26 | 48.69527 | 9.23625 | 1288 ft | 23 kts | 72° |
| 2026-05-07 15:26 | 48.69563 | 9.23861 | 1288 ft | 23 kts | 75° |
| 2026-05-07 15:26 | 48.69604 | 9.24073 | 1288 ft | 18 kts | 73° |
| 2026-05-07 15:26 | 48.69580 | 9.24241 | 1288 ft | 16 kts | 120° |
| 2026-05-07 15:27 | 48.69511 | 9.24309 | 1288 ft | 6 kts | 164° |
| 2026-05-07 15:27 | 48.69493 | 9.24317 | 1288 ft | 0 kts | 164° |
| 2026-05-07 15:28 | 48.69491 | 9.24318 | 1288 ft | 1 kts | 164° |
| 2026-05-07 15:28 | 48.69462 | 9.24328 | 1288 ft | 7 kts | 174° |
| 2026-05-07 15:28 | 48.69404 | 9.24310 | 1288 ft | 11 kts | 208° |
| 2026-05-07 15:29 | 48.69372 | 9.24213 | 1288 ft | 7 kts | 254° |
| 2026-05-07 15:29 | 48.69370 | 9.24206 | 1288 ft | 0 kts | 253° |
| 2026-05-07 15:30 | 48.69336 | 9.24029 | 1289 ft | 54 kts | 254° |
| 2026-05-07 15:30 | 48.69145 | 9.23017 | 1289 ft | 144 kts | 253° |
| 2026-05-07 15:30 | 48.68847 | 9.21374 | 1793 ft | 172 kts | 257° |
| 2026-05-07 15:31 | 48.68523 | 9.19621 | 2832 ft | 174 kts | 257° |
| 2026-05-07 15:31 | 48.68181 | 9.17811 | 3681 ft | 188 kts | 256° |
| 2026-05-07 15:31 | 48.67795 | 9.15816 | 4142 ft | 204 kts | 256° |
| 2026-05-07 15:31 | 48.67380 | 9.13713 | 4643 ft | 214 kts | 255° |
| 2026-05-07 15:32 | 48.67045 | 9.11473 | 5023 ft | 227 kts | 267° |
| 2026-05-07 15:32 | 48.67404 | 9.09136 | 5073 ft | 236 kts | 301° |
| 2026-05-07 15:32 | 48.68526 | 9.07292 | 5277 ft | 242 kts | 322° |
| 2026-05-07 15:32 | 48.70046 | 9.06100 | 5932 ft | 256 kts | 337° |
| 2026-05-07 15:33 | 48.71765 | 9.05189 | 6815 ft | 266 kts | 340° |
| 2026-05-07 15:33 | 48.73544 | 9.04306 | 7809 ft | 272 kts | 339° |
| 2026-05-07 15:33 | 48.75363 | 9.03397 | 8853 ft | 277 kts | 339° |
| 2026-05-07 15:33 | 48.77211 | 9.02465 | 9922 ft | 283 kts | 339° |
| 2026-05-07 15:34 | 48.79183 | 9.01824 | 10683 ft | 302 kts | 354° |
| 2026-05-07 15:34 | 48.81323 | 9.02288 | 11347 ft | 323 kts | 19° |
| 2026-05-07 15:34 | 48.83354 | 9.03840 | 12316 ft | 330 kts | 28° |
| 2026-05-07 15:34 | 48.85336 | 9.05653 | 13381 ft | 334 kts | 29° |
| 2026-05-07 15:35 | 48.87359 | 9.07432 | 14355 ft | 338 kts | 24° |
| 2026-05-07 15:35 | 48.89598 | 9.08531 | 15217 ft | 341 kts | 8° |
| 2026-05-07 15:35 | 48.91965 | 9.09010 | 16116 ft | 346 kts | 3° |
| 2026-05-07 15:35 | 48.94387 | 9.09357 | 17027 ft | 352 kts | 2° |
| 2026-05-07 15:36 | 48.96836 | 9.09687 | 17990 ft | 356 kts | 2° |
| 2026-05-07 15:36 | 48.99321 | 9.10025 | 18867 ft | 361 kts | 2° |
| 2026-05-07 15:36 | 49.01844 | 9.10372 | 19703 ft | 367 kts | 2° |
| 2026-05-07 15:36 | 49.04402 | 9.10730 | 20517 ft | 371 kts | 2° |
| 2026-05-07 15:37 | 49.06986 | 9.11099 | 21300 ft | 375 kts | 2° |
| 2026-05-07 15:37 | 49.09589 | 9.11472 | 21841 ft | 377 kts | 2° |
| 2026-05-07 15:37 | 49.12206 | 9.11848 | 22021 ft | 378 kts | 2° |
| 2026-05-07 15:37 | 49.14832 | 9.12226 | 22036 ft | 380 kts | 2° |
| 2026-05-07 15:38 | 49.17468 | 9.12605 | 22037 ft | 381 kts | 2° |
| 2026-05-07 15:38 | 49.20105 | 9.12983 | 22031 ft | 381 kts | 2° |
| 2026-05-07 15:38 | 49.22741 | 9.13360 | 22031 ft | 381 kts | 2° |
| 2026-05-07 15:38 | 49.25377 | 9.13735 | 22033 ft | 381 kts | 2° |
| 2026-05-07 15:39 | 49.28018 | 9.14111 | 22040 ft | 381 kts | 2° |
| 2026-05-07 15:39 | 49.30657 | 9.14486 | 22040 ft | 381 kts | 2° |
| 2026-05-07 15:39 | 49.33290 | 9.14861 | 22030 ft | 381 kts | 2° |
| 2026-05-07 15:39 | 49.35925 | 9.15237 | 22034 ft | 381 kts | 2° |
| 2026-05-07 15:40 | 49.38565 | 9.15614 | 22047 ft | 381 kts | 3° |
| 2026-05-07 15:40 | 49.41200 | 9.15990 | 22045 ft | 380 kts | 3° |
| 2026-05-07 15:40 | 49.43828 | 9.16365 | 22042 ft | 380 kts | 3° |
| 2026-05-07 15:40 | 49.46471 | 9.16743 | 22036 ft | 380 kts | 3° |
| 2026-05-07 15:41 | 49.49108 | 9.17122 | 22041 ft | 380 kts | 3° |
| 2026-05-07 15:41 | 49.51740 | 9.17501 | 22043 ft | 380 kts | 3° |
| 2026-05-07 15:41 | 49.54332 | 9.17875 | 22045 ft | 380 kts | 3° |
| 2026-05-07 15:41 | 49.56968 | 9.18255 | 22039 ft | 380 kts | 3° |
| 2026-05-07 15:42 | 49.59602 | 9.18634 | 22036 ft | 380 kts | 3° |
| 2026-05-07 15:42 | 49.62236 | 9.19014 | 22048 ft | 380 kts | 4° |
| 2026-05-07 15:42 | 49.64801 | 9.19794 | 22039 ft | 382 kts | 19° |
| 2026-05-07 15:42 | 49.67111 | 9.21806 | 22054 ft | 384 kts | 34° |
| 2026-05-07 15:43 | 49.69184 | 9.24417 | 22047 ft | 385 kts | 41° |
| 2026-05-07 15:43 | 49.71114 | 9.27301 | 22045 ft | 386 kts | 43° |
| 2026-05-07 15:43 | 49.73248 | 9.29748 | 22050 ft | 382 kts | 24° |
| 2026-05-07 15:43 | 49.75738 | 9.31143 | 22043 ft | 380 kts | 14° |
| 2026-05-07 15:44 | 49.78304 | 9.32154 | 22042 ft | 380 kts | 11° |
| 2026-05-07 15:44 | 49.80882 | 9.33051 | 22049 ft | 380 kts | 10° |
| 2026-05-07 15:44 | 49.83498 | 9.33383 | 22045 ft | 376 kts | 352° |
| 2026-05-07 15:44 | 49.85964 | 9.32230 | 22047 ft | 371 kts | 330° |
| 2026-05-07 15:45 | 49.87935 | 9.29714 | 22042 ft | 368 kts | 308° |
| 2026-05-07 15:45 | 49.89108 | 9.26237 | 22051 ft | 366 kts | 285° |
| 2026-05-07 15:45 | 49.89555 | 9.22344 | 22056 ft | 367 kts | 278° |
| 2026-05-07 15:45 | 49.89935 | 9.18434 | 22050 ft | 368 kts | 280° |
| 2026-05-07 15:46 | 49.91009 | 9.10732 | 21595 ft | 358 kts | 284° |
| 2026-05-07 15:46 | 49.91630 | 9.07052 | 21375 ft | 348 kts | 285° |
| 2026-05-07 15:46 | 49.92262 | 9.03485 | 21026 ft | 338 kts | 285° |
| 2026-05-07 15:47 | 49.92916 | 9.00020 | 20418 ft | 333 kts | 289° |
| 2026-05-07 15:47 | 49.93901 | 8.96800 | 19743 ft | 330 kts | 303° |
| 2026-05-07 15:47 | 49.95426 | 8.94156 | 19093 ft | 329 kts | 320° |
| 2026-05-07 15:47 | 49.97405 | 8.92364 | 18613 ft | 331 kts | 338° |
| 2026-05-07 15:48 | 49.99626 | 8.91580 | 18187 ft | 331 kts | 355° |
| 2026-05-07 15:48 | 50.01146 | 8.91731 | 17853 ft | 332 kts | 11° |
| 2026-05-07 15:48 | 50.03212 | 8.93282 | 17371 ft | 334 kts | 39° |
| 2026-05-07 15:48 | 50.04630 | 8.96118 | 16901 ft | 334 kts | 62° |
| 2026-05-07 15:49 | 50.05545 | 9.00652 | 16302 ft | 332 kts | 72° |
| 2026-05-07 15:49 | 50.06435 | 9.03939 | 15848 ft | 328 kts | 58° |
| 2026-05-07 15:49 | 50.07667 | 9.06901 | 15425 ft | 324 kts | 54° |
| 2026-05-07 15:49 | 50.08949 | 9.09773 | 15013 ft | 322 kts | 53° |
| 2026-05-07 15:50 | 50.10225 | 9.12619 | 14589 ft | 320 kts | 53° |
| 2026-05-07 15:50 | 50.11083 | 9.14538 | 14312 ft | 319 kts | 53° |
| 2026-05-07 15:50 | 50.12346 | 9.17369 | 13914 ft | 317 kts | 53° |
| 2026-05-07 15:50 | 50.13598 | 9.20182 | 13462 ft | 315 kts | 53° |
| 2026-05-07 15:51 | 50.14823 | 9.22944 | 13015 ft | 312 kts | 53° |
| 2026-05-07 15:51 | 50.16070 | 9.25692 | 12578 ft | 309 kts | 49° |
| 2026-05-07 15:51 | 50.17705 | 9.27783 | 12145 ft | 303 kts | 25° |
| 2026-05-07 15:51 | 50.19705 | 9.28596 | 11699 ft | 297 kts | 360° |
| 2026-05-07 15:52 | 50.21741 | 9.28195 | 11281 ft | 293 kts | 346° |
| 2026-05-07 15:52 | 50.23710 | 9.27409 | 10858 ft | 291 kts | 344° |
| 2026-05-07 15:52 | 50.25656 | 9.26577 | 10431 ft | 289 kts | 343° |
| 2026-05-07 15:52 | 50.27587 | 9.25743 | 10025 ft | 287 kts | 343° |
| 2026-05-07 15:53 | 50.29500 | 9.24910 | 9676 ft | 282 kts | 343° |
| 2026-05-07 15:53 | 50.31362 | 9.24098 | 9195 ft | 276 kts | 343° |
| 2026-05-07 15:53 | 50.33212 | 9.23298 | 8492 ft | 276 kts | 343° |
| 2026-05-07 15:53 | 50.35055 | 9.22512 | 7896 ft | 273 kts | 343° |
| 2026-05-07 15:54 | 50.36881 | 9.21739 | 7324 ft | 270 kts | 343° |
| 2026-05-07 15:54 | 50.38680 | 9.20982 | 6741 ft | 267 kts | 343° |
| 2026-05-07 15:54 | 50.40463 | 9.20237 | 6169 ft | 263 kts | 344° |
| 2026-05-07 15:54 | 50.42213 | 9.19458 | 5561 ft | 260 kts | 336° |
| 2026-05-07 15:55 | 50.43628 | 9.17792 | 5121 ft | 256 kts | 307° |
| 2026-05-07 15:55 | 50.44302 | 9.15232 | 5000 ft | 259 kts | 278° |
| 2026-05-07 15:55 | 50.44080 | 9.12438 | 4989 ft | 263 kts | 250° |
| 2026-05-07 15:55 | 50.43023 | 9.10128 | 4989 ft | 267 kts | 221° |
| 2026-05-07 15:56 | 50.41364 | 9.08836 | 4993 ft | 271 kts | 194° |
| 2026-05-07 15:56 | 50.39491 | 9.08468 | 4991 ft | 273 kts | 185° |
| 2026-05-07 15:56 | 50.37590 | 9.08321 | 4988 ft | 273 kts | 184° |
| 2026-05-07 15:56 | 50.35687 | 9.08201 | 4992 ft | 274 kts | 184° |
| 2026-05-07 15:57 | 50.33783 | 9.08084 | 4991 ft | 274 kts | 184° |
| 2026-05-07 15:57 | 50.31882 | 9.07963 | 4991 ft | 274 kts | 184° |
| 2026-05-07 15:57 | 50.29982 | 9.07843 | 4990 ft | 274 kts | 184° |
| 2026-05-07 15:57 | 50.28074 | 9.07726 | 4988 ft | 273 kts | 184° |
| 2026-05-07 15:58 | 50.26175 | 9.07617 | 4991 ft | 272 kts | 184° |
| 2026-05-07 15:58 | 50.24285 | 9.07510 | 4993 ft | 272 kts | 184° |
| 2026-05-07 15:58 | 50.22392 | 9.07407 | 4988 ft | 272 kts | 184° |
| 2026-05-07 15:58 | 50.20501 | 9.07302 | 4991 ft | 272 kts | 184° |
| 2026-05-07 15:59 | 50.18640 | 9.06900 | 4993 ft | 269 kts | 202° |
| 2026-05-07 15:59 | 50.17153 | 9.05245 | 4993 ft | 263 kts | 234° |
| 2026-05-07 15:59 | 50.16280 | 9.02769 | 4994 ft | 261 kts | 250° |
| 2026-05-07 15:59 | 50.15666 | 9.00103 | 4990 ft | 261 kts | 253° |
| 2026-05-07 16:00 | 50.15093 | 8.97413 | 4988 ft | 262 kts | 252° |
| 2026-05-07 16:00 | 50.14484 | 8.94775 | 4979 ft | 252 kts | 251° |
| 2026-05-07 16:00 | 50.13880 | 8.92305 | 4963 ft | 236 kts | 251° |
| 2026-05-07 16:00 | 50.13322 | 8.89997 | 4959 ft | 219 kts | 251° |
| 2026-05-07 16:01 | 50.12814 | 8.87859 | 4976 ft | 201 kts | 252° |
| 2026-05-07 16:01 | 50.12346 | 8.85889 | 4968 ft | 189 kts | 252° |
| 2026-05-07 16:01 | 50.11912 | 8.84069 | 4898 ft | 174 kts | 252° |
| 2026-05-07 16:01 | 50.11508 | 8.82376 | 4684 ft | 162 kts | 252° |
| 2026-05-07 16:02 | 50.11122 | 8.80755 | 4396 ft | 157 kts | 252° |
| 2026-05-07 16:02 | 50.10748 | 8.79186 | 4117 ft | 152 kts | 252° |
| 2026-05-07 16:02 | 50.10388 | 8.77677 | 3880 ft | 145 kts | 252° |
| 2026-05-07 16:02 | 50.10044 | 8.76236 | 3664 ft | 138 kts | 253° |
| 2026-05-07 16:03 | 50.09721 | 8.74885 | 3476 ft | 130 kts | 253° |
| 2026-05-07 16:03 | 50.09407 | 8.73565 | 3309 ft | 131 kts | 253° |
| 2026-05-07 16:03 | 50.09089 | 8.72232 | 3115 ft | 131 kts | 253° |
| 2026-05-07 16:03 | 50.08774 | 8.70912 | 2918 ft | 129 kts | 252° |
| 2026-05-07 16:04 | 50.08460 | 8.69601 | 2745 ft | 130 kts | 252° |
| 2026-05-07 16:04 | 50.08145 | 8.68281 | 2556 ft | 130 kts | 252° |
| 2026-05-07 16:04 | 50.07830 | 8.66961 | 2367 ft | 131 kts | 253° |
| 2026-05-07 16:04 | 50.07512 | 8.65631 | 2173 ft | 132 kts | 252° |
| 2026-05-07 16:05 | 50.07193 | 8.64295 | 1975 ft | 131 kts | 252° |
| 2026-05-07 16:05 | 50.06874 | 8.62960 | 1778 ft | 131 kts | 252° |
| 2026-05-07 16:05 | 50.06555 | 8.61627 | 1598 ft | 132 kts | 253° |
| 2026-05-07 16:05 | 50.06236 | 8.60288 | 1401 ft | 132 kts | 252° |
| 2026-05-07 16:06 | 50.05920 | 8.58966 | 1209 ft | 130 kts | 252° |
| 2026-05-07 16:06 | 50.05609 | 8.57665 | 1013 ft | 127 kts | 252° |
| 2026-05-07 16:06 | 50.05313 | 8.56395 | 792 ft | 123 kts | 251° |
| 2026-05-07 16:06 | 50.05017 | 8.55156 | 643 ft | 123 kts | 249° |
| 2026-05-07 16:07 | 50.04713 | 8.53922 | 474 ft | 122 kts | 249° |
| 2026-05-07 16:07 | 50.04417 | 8.52701 | 354 ft | 117 kts | 248° |
| 2026-05-07 16:07 | 50.04191 | 8.51742 | 339 ft | 69 kts | 250° |
| 2026-05-07 16:07 | 50.04088 | 8.51301 | 334 ft | 24 kts | 250° |
| 2026-05-07 16:08 | 50.04008 | 8.51062 | 330 ft | 26 kts | 229° |
| 2026-05-07 16:08 | 50.03888 | 8.50891 | 330 ft | 19 kts | 220° |
| 2026-05-07 16:08 | 50.03782 | 8.50865 | 332 ft | 16 kts | 122° |
| 2026-05-07 16:08 | 50.03802 | 8.51017 | 333 ft | 14 kts | 69° |
| 2026-05-07 16:09 | 50.03837 | 8.51159 | 334 ft | 14 kts | 69° |
| 2026-05-07 16:09 | 50.03871 | 8.51296 | 333 ft | 13 kts | 69° |
| 2026-05-07 16:09 | 50.03904 | 8.51432 | 336 ft | 14 kts | 70° |
| 2026-05-07 16:09 | 50.03937 | 8.51576 | 339 ft | 14 kts | 70° |
| 2026-05-07 16:10 | 50.03971 | 8.51722 | 337 ft | 14 kts | 70° |
| 2026-05-07 16:10 | 50.04005 | 8.51871 | 347 ft | 15 kts | 70° |
| 2026-05-07 16:10 | 50.04047 | 8.52036 | 348 ft | 18 kts | 69° |
| 2026-05-07 16:10 | 50.04090 | 8.52215 | 351 ft | 18 kts | 70° |
| 2026-05-07 16:11 | 50.04131 | 8.52394 | 351 ft | 18 kts | 69° |
| 2026-05-07 16:11 | 50.04171 | 8.52604 | 349 ft | 21 kts | 88° |
| 2026-05-07 16:11 | 50.04216 | 8.52764 | 359 ft | 17 kts | 59° |
| 2026-05-07 16:11 | 50.04257 | 8.52916 | 362 ft | 14 kts | 70° |
| 2026-05-07 16:12 | 50.04289 | 8.53051 | 362 ft | 12 kts | 70° |
| 2026-05-07 16:12 | 50.04320 | 8.53182 | 365 ft | 14 kts | 70° |
| 2026-05-07 16:12 | 50.04356 | 8.53332 | 369 ft | 14 kts | 70° |
| 2026-05-07 16:12 | 50.04390 | 8.53474 | 370 ft | 13 kts | 71° |
| 2026-05-07 16:13 | 50.04401 | 8.53621 | 365 ft | 14 kts | 84° |
| 2026-05-07 16:13 | 50.04411 | 8.53772 | 370 ft | 14 kts | 84° |
| 2026-05-07 16:13 | 50.04421 | 8.53928 | 364 ft | 15 kts | 84° |
| 2026-05-07 16:13 | 50.04432 | 8.54091 | 369 ft | 16 kts | 84° |
| 2026-05-07 16:14 | 50.04443 | 8.54262 | 371 ft | 16 kts | 84° |
| 2026-05-07 16:14 | 50.04453 | 8.54442 | 365 ft | 17 kts | 89° |
| 2026-05-07 16:14 | 50.04423 | 8.54616 | 368 ft | 17 kts | 118° |
| 2026-05-07 16:14 | 50.04343 | 8.54748 | 366 ft | 16 kts | 149° |
| 2026-05-07 16:15 | 50.04253 | 8.54806 | 369 ft | 9 kts | 160° |
| 2026-05-07 16:15 | 50.04189 | 8.54841 | 368 ft | 10 kts | 160° |
| 2026-05-07 16:15 | 50.04182 | 8.54845 | 371 ft | 1 kts | 160° |
| 2026-05-07 16:15 | 50.04179 | 8.54847 | 370 ft | 1 kts | 160° |
| 2026-05-07 16:16 | 50.04172 | 8.54851 | 368 ft | 1 kts | 160° |
| 2026-05-07 16:16 | 50.04159 | 8.54858 | 371 ft | 2 kts | 160° |
| 2026-05-07 16:16 | 50.04149 | 8.54864 | 367 ft | 0 kts | 160° |
| 2026-05-07 16:17 | 50.04148 | 8.54864 | 367 ft | 0 kts | 160° |
| 2026-05-07 16:17 | 50.04143 | 8.54867 | 366 ft | 1 kts | 160° |
| 2026-05-07 16:17 | 50.04123 | 8.54879 | 370 ft | 6 kts | 160° |
| 2026-05-07 16:18 | 50.04072 | 8.54908 | 368 ft | 10 kts | 160° |
| 2026-05-07 16:18 | 50.03991 | 8.54955 | 366 ft | 14 kts | 158° |
| 2026-05-07 16:18 | 50.03900 | 8.55011 | 367 ft | 15 kts | 159° |
| 2026-05-07 16:18 | 50.03850 | 8.55119 | 363 ft | 14 kts | 72° |
| 2026-05-07 16:19 | 50.03884 | 8.55260 | 367 ft | 14 kts | 70° |
| 2026-05-07 16:19 | 50.03914 | 8.55389 | 365 ft | 13 kts | 70° |
| 2026-05-07 16:19 | 50.03946 | 8.55524 | 365 ft | 14 kts | 70° |
| 2026-05-07 16:19 | 50.03979 | 8.55665 | 364 ft | 14 kts | 70° |
| 2026-05-07 16:20 | 50.04015 | 8.55815 | 370 ft | 15 kts | 70° |
| 2026-05-07 16:20 | 50.04024 | 8.55851 | 368 ft | 1 kts | 70° |
| 2026-05-07 16:20 | 50.04027 | 8.55864 | 371 ft | 2 kts | 70° |
| 2026-05-07 16:20 | 50.04032 | 8.55886 | 370 ft | 3 kts | 70° |
| 2026-05-07 16:21 | 50.04034 | 8.55895 | 368 ft | 1 kts | 70° |
| 2026-05-07 16:21 | 50.04038 | 8.55909 | 370 ft | 2 kts | 70° |
| 2026-05-07 16:21 | 50.04044 | 8.55936 | 367 ft | 3 kts | 70° |
| 2026-05-07 16:21 | 50.04053 | 8.55973 | 365 ft | 4 kts | 70° |
| 2026-05-07 16:22 | 50.04069 | 8.56042 | 369 ft | 10 kts | 70° |
| 2026-05-07 16:22 | 50.04101 | 8.56175 | 368 ft | 16 kts | 70° |
| 2026-05-07 16:22 | 50.04142 | 8.56346 | 369 ft | 17 kts | 69° |
| 2026-05-07 16:22 | 50.04185 | 8.56524 | 367 ft | 18 kts | 70° |
| 2026-05-07 16:23 | 50.04228 | 8.56706 | 368 ft | 17 kts | 69° |
| 2026-05-07 16:23 | 50.04300 | 8.56817 | 364 ft | 15 kts | 4° |
| 2026-05-07 16:23 | 50.04408 | 8.56844 | 368 ft | 16 kts | 10° |
| 2026-05-07 16:23 | 50.04521 | 8.56879 | 364 ft | 17 kts | 14° |
| 2026-05-07 16:24 | 50.04637 | 8.56924 | 366 ft | 17 kts | 19° |
| 2026-05-07 16:24 | 50.04749 | 8.57001 | 367 ft | 18 kts | 25° |
| 2026-05-07 16:24 | 50.04852 | 8.57075 | 366 ft | 12 kts | 24° |
| 2026-05-07 16:24 | 50.04871 | 8.57065 | 366 ft | 2 kts | 305° |
| 2026-05-07 16:25 | 50.04881 | 8.57040 | 368 ft | 3 kts | 300° |
| 2026-05-07 16:25 | 50.04890 | 8.57010 | 366 ft | 3 kts | 295° |
| 2026-05-07 16:25 | 50.04896 | 8.56990 | 371 ft | 0 kts | 295° |